createdAt,value
2023-03-16T00:00:10.051Z,-0.27
2023-03-16T00:01:10.057Z,-0.15
2023-03-16T00:02:10.218Z,-0.23
2023-03-16T00:03:10.068Z,-0.27
2023-03-16T00:04:10.040Z,-0.18
2023-03-16T00:05:09.996Z,-0.22
2023-03-16T00:06:10.020Z,-0.19
2023-03-16T00:07:09.986Z,-0.26
2023-03-16T00:08:09.974Z,-0.19
2023-03-16T00:09:10.000Z,-0.29
2023-03-16T00:10:09.951Z,-0.18
2023-03-16T00:11:09.943Z,-0.24
2023-03-16T00:12:09.933Z,-0.24
2023-03-16T00:13:09.935Z,-0.27
2023-03-16T00:14:09.943Z,-0.15
2023-03-16T00:15:09.911Z,-0.22
2023-03-16T00:16:09.963Z,-0.24
2023-03-16T00:17:09.881Z,-0.22
2023-03-16T00:18:09.874Z,-0.22
2023-03-16T00:19:09.882Z,-0.22
2023-03-16T00:20:09.846Z,-0.23
2023-03-16T00:21:09.861Z,-0.16
2023-03-16T00:22:09.834Z,-0.33
2023-03-16T00:23:09.830Z,-0.26
2023-03-16T00:24:09.855Z,-0.16
2023-03-16T00:25:09.813Z,-0.27
2023-03-16T00:26:09.844Z,-0.29
2023-03-16T00:27:09.794Z,-0.26
2023-03-16T00:28:09.777Z,-0.26
2023-03-16T00:29:09.803Z,-0.27
2023-03-16T00:30:09.759Z,-0.24
2023-03-16T00:31:09.765Z,-0.29
2023-03-16T00:32:09.742Z,-0.30
2023-03-16T00:33:09.824Z,-0.27
2023-03-16T00:34:09.760Z,-0.33
2023-03-16T00:35:09.927Z,-0.41
2023-03-16T00:36:09.798Z,-0.30
2023-03-16T00:37:09.761Z,-0.27
2023-03-16T00:38:09.734Z,-0.45
2023-03-16T00:39:09.660Z,-0.36
2023-03-16T00:40:09.676Z,-0.37
2023-03-16T00:41:09.668Z,-0.29
2023-03-16T00:42:09.625Z,-0.34
2023-03-16T00:43:09.630Z,-0.39
2023-03-16T00:44:09.617Z,-0.45
2023-03-16T00:45:09.621Z,-0.36
2023-03-16T00:46:09.655Z,-0.44
2023-03-16T00:47:09.581Z,-0.54
2023-03-16T00:48:09.583Z,-0.60
2023-03-16T00:49:09.565Z,-0.63
2023-03-16T00:50:09.567Z,-0.60
2023-03-16T00:51:09.550Z,-0.59
2023-03-16T00:52:09.527Z,-0.50
2023-03-16T00:53:09.530Z,-0.62
2023-03-16T00:54:09.518Z,-0.55
2023-03-16T00:55:09.540Z,-0.51
2023-03-16T00:56:09.483Z,-0.45
2023-03-16T00:57:09.479Z,-0.50
2023-03-16T00:58:09.466Z,-0.50
2023-03-16T00:59:09.468Z,-0.45
2023-03-16T01:00:09.475Z,-0.51
2023-03-16T01:01:09.503Z,-0.52
2023-03-16T01:02:09.439Z,-0.45
2023-03-16T01:03:09.433Z,-0.52
2023-03-16T01:04:09.406Z,-0.55
2023-03-16T01:05:09.428Z,-0.62
2023-03-16T01:06:09.389Z,-0.54
2023-03-16T01:07:09.378Z,-0.57
2023-03-16T01:08:09.381Z,-0.63
2023-03-16T01:09:09.362Z,-0.62
2023-03-16T01:10:09.372Z,-0.59
2023-03-16T01:11:09.342Z,-0.62
2023-03-16T01:12:09.325Z,-0.55
2023-03-16T01:13:09.318Z,-0.63
2023-03-16T01:14:09.308Z,-0.59
2023-03-16T01:15:09.329Z,-0.60
2023-03-16T01:16:09.292Z,-0.62
2023-03-16T01:17:09.401Z,-0.62
2023-03-16T01:18:09.282Z,-0.62
2023-03-16T01:19:09.256Z,-0.69
2023-03-16T01:20:09.304Z,-0.63
2023-03-16T01:21:09.260Z,-0.63
2023-03-16T01:22:09.233Z,-0.66
2023-03-16T01:23:09.217Z,-0.69
2023-03-16T01:24:09.215Z,-0.65
2023-03-16T01:25:09.225Z,-0.65
2023-03-16T01:26:09.196Z,-0.57
2023-03-16T01:27:09.258Z,-0.73
2023-03-16T01:28:09.163Z,-0.68
2023-03-16T01:29:09.160Z,-0.72
2023-03-16T01:30:09.184Z,-0.70
2023-03-16T01:31:09.226Z,-0.80
2023-03-16T01:32:09.128Z,-0.80
2023-03-16T01:33:09.221Z,-0.81
2023-03-16T01:34:09.112Z,-0.77
2023-03-16T01:35:09.123Z,-0.89
2023-03-16T01:36:09.097Z,-0.86
2023-03-16T01:37:09.083Z,-0.89
2023-03-16T01:38:09.066Z,-0.94
2023-03-16T01:39:09.074Z,-0.99
2023-03-16T01:40:09.107Z,-0.99
2023-03-16T01:41:09.043Z,-1.12
2023-03-16T01:42:09.032Z,-1.20
2023-03-16T01:43:09.015Z,-1.21
2023-03-16T01:44:09.010Z,-1.25
2023-03-16T01:45:09.021Z,-1.24
2023-03-16T01:46:09.054Z,-1.28
2023-03-16T01:47:08.993Z,-1.23
2023-03-16T01:48:08.980Z,-1.20
2023-03-16T01:49:08.970Z,-1.21
2023-03-16T01:50:08.985Z,-1.23
2023-03-16T01:51:08.939Z,-1.20
2023-03-16T01:52:08.956Z,-1.24
2023-03-16T01:53:08.917Z,-1.25
2023-03-16T01:54:08.895Z,-1.27
2023-03-16T01:55:09.921Z,-1.20
2023-03-16T01:56:08.893Z,-1.21
2023-03-16T01:57:08.876Z,-1.23
2023-03-16T01:58:08.872Z,-1.13
2023-03-16T01:59:08.860Z,-1.25
2023-03-16T02:00:08.900Z,-1.15
2023-03-16T02:01:08.913Z,-1.20
2023-03-16T02:02:08.829Z,-1.07
2023-03-16T02:03:08.829Z,-1.12
2023-03-16T02:04:08.913Z,-1.06
2023-03-16T02:05:08.829Z,-1.12
2023-03-16T02:06:08.789Z,-1.03
2023-03-16T02:07:08.776Z,-1.02
2023-03-16T02:08:08.770Z,-1.00
2023-03-16T02:09:08.756Z,-0.94
2023-03-16T02:10:08.795Z,-0.99
2023-03-16T02:11:08.751Z,-1.03
2023-03-16T02:12:08.732Z,-0.95
2023-03-16T02:13:08.731Z,-0.94
2023-03-16T02:14:08.722Z,-0.99
2023-03-16T02:15:08.728Z,-0.92
2023-03-16T02:16:08.751Z,-0.99
2023-03-16T02:17:08.771Z,-1.00
2023-03-16T02:18:08.679Z,-1.02
2023-03-16T02:19:08.664Z,-0.94
2023-03-16T02:20:08.671Z,-0.99
2023-03-16T02:21:08.645Z,-0.94
2023-03-16T02:22:08.681Z,-0.89
2023-03-16T02:23:08.621Z,-0.92
2023-03-16T02:24:08.690Z,-0.91
2023-03-16T02:25:08.606Z,-0.97
2023-03-16T02:26:09.582Z,-0.84
2023-03-16T02:27:08.579Z,-0.87
2023-03-16T02:28:08.575Z,-0.86
2023-03-16T02:29:08.562Z,-0.84
2023-03-16T02:30:08.607Z,-0.92
2023-03-16T02:31:08.619Z,-0.83
2023-03-16T02:32:08.548Z,-0.86
2023-03-16T02:33:08.569Z,-0.86
2023-03-16T02:34:08.521Z,-0.91
2023-03-16T02:35:08.541Z,-0.84
2023-03-16T02:36:08.511Z,-0.87
2023-03-16T02:37:08.483Z,-0.95
2023-03-16T02:38:08.474Z,-0.99
2023-03-16T02:39:08.459Z,-0.84
2023-03-16T02:40:08.482Z,-0.95
2023-03-16T02:41:08.453Z,-1.00
2023-03-16T02:42:08.471Z,-1.02
2023-03-16T02:43:08.429Z,-1.00
2023-03-16T02:44:08.417Z,-0.97
2023-03-16T02:45:08.436Z,-1.02
2023-03-16T02:46:08.462Z,-1.00
2023-03-16T02:47:08.391Z,-1.10
2023-03-16T02:48:08.405Z,-1.17
2023-03-16T02:49:08.364Z,-1.12
2023-03-16T02:50:08.354Z,-1.06
2023-03-16T02:51:08.342Z,-1.17
2023-03-16T02:52:08.335Z,-1.17
2023-03-16T02:53:08.368Z,-1.12
2023-03-16T02:54:08.358Z,-1.10
2023-03-16T02:55:08.347Z,-1.07
2023-03-16T02:56:08.311Z,-1.09
2023-03-16T02:57:08.296Z,-1.10
2023-03-16T02:58:08.270Z,-1.03
2023-03-16T02:59:08.261Z,-1.17
2023-03-16T03:00:08.296Z,-1.06
2023-03-16T03:01:08.227Z,-1.09
2023-03-16T03:02:11.151Z,-1.12
2023-03-16T03:03:09.238Z,-1.12
2023-03-16T03:04:08.207Z,-1.09
2023-03-16T03:05:08.216Z,-1.20
2023-03-16T03:06:08.191Z,-1.07
2023-03-16T03:07:08.183Z,-1.20
2023-03-16T03:08:08.185Z,-1.09
2023-03-16T03:09:08.164Z,-1.24
2023-03-16T03:10:08.187Z,-1.21
2023-03-16T03:11:08.137Z,-1.23
2023-03-16T03:12:08.132Z,-1.20
2023-03-16T03:13:08.121Z,-1.24
2023-03-16T03:14:08.111Z,-1.20
2023-03-16T03:15:08.118Z,-1.21
2023-03-16T03:16:08.135Z,-1.25
2023-03-16T03:17:08.090Z,-1.25
2023-03-16T03:18:08.087Z,-1.23
2023-03-16T03:19:08.093Z,-1.24
2023-03-16T03:20:08.110Z,-1.23
2023-03-16T03:21:08.052Z,-1.30
2023-03-16T03:22:08.039Z,-1.21
2023-03-16T03:23:08.033Z,-1.20
2023-03-16T03:24:08.052Z,-1.20
2023-03-16T03:25:08.041Z,-1.18
2023-03-16T03:26:08.000Z,-1.20
2023-03-16T03:27:07.996Z,-1.20
2023-03-16T03:28:08.030Z,-1.28
2023-03-16T03:29:07.994Z,-1.23
2023-03-16T03:30:07.972Z,-1.17
2023-03-16T03:31:08.068Z,-1.23
2023-03-16T03:32:07.949Z,-1.25
2023-03-16T03:33:08.010Z,-1.28
2023-03-16T03:34:07.969Z,-1.23
2023-03-16T03:35:07.923Z,-1.27
2023-03-16T03:36:07.948Z,-1.28
2023-03-16T03:37:07.908Z,-1.31
2023-03-16T03:38:07.884Z,-1.30
2023-03-16T03:39:07.873Z,-1.31
2023-03-16T03:40:07.864Z,-1.30
2023-03-16T03:41:07.879Z,-1.36
2023-03-16T03:42:07.853Z,-1.41
2023-03-16T03:43:07.842Z,-1.43
2023-03-16T03:44:07.830Z,-1.38
2023-03-16T03:45:07.823Z,-1.30
2023-03-16T03:46:08.014Z,-1.27
2023-03-16T03:47:07.844Z,-1.31
2023-03-16T03:48:07.788Z,-1.38
2023-03-16T03:49:07.780Z,-1.41
2023-03-16T03:50:07.760Z,-1.41
2023-03-16T03:51:07.776Z,-1.31
2023-03-16T03:52:07.754Z,-1.48
2023-03-16T03:53:07.745Z,-1.36
2023-03-16T03:54:07.732Z,-1.31
2023-03-16T03:55:07.721Z,-1.39
2023-03-16T03:56:07.723Z,-1.41
2023-03-16T03:57:07.692Z,-1.42
2023-03-16T03:58:07.697Z,-1.39
2023-03-16T03:59:07.675Z,-1.42
2023-03-16T04:00:07.667Z,-1.45
2023-03-16T04:01:07.661Z,-1.41
2023-03-16T04:02:07.716Z,-1.41
2023-03-16T04:03:07.738Z,-1.36
2023-03-16T04:04:07.652Z,-1.39
2023-03-16T04:05:07.638Z,-1.43
2023-03-16T04:06:07.633Z,-1.48
2023-03-16T04:07:07.600Z,-1.53
2023-03-16T04:08:07.594Z,-1.38
2023-03-16T04:09:07.592Z,-1.43
2023-03-16T04:10:07.571Z,-1.46
2023-03-16T04:11:07.579Z,-1.46
2023-03-16T04:12:07.575Z,-1.51
2023-03-16T04:13:07.538Z,-1.46
2023-03-16T04:14:07.531Z,-1.49
2023-03-16T04:15:07.532Z,-1.49
2023-03-16T04:16:08.544Z,-1.45
2023-03-16T04:17:07.503Z,-1.42
2023-03-16T04:18:07.494Z,-1.39
2023-03-16T04:19:07.487Z,-1.45
2023-03-16T04:20:07.474Z,-1.46
2023-03-16T04:21:07.477Z,-1.43
2023-03-16T04:22:07.457Z,-1.38
2023-03-16T04:23:07.456Z,-1.48
2023-03-16T04:24:07.449Z,-1.31
2023-03-16T04:25:07.439Z,-1.39
2023-03-16T04:26:07.434Z,-1.43
2023-03-16T04:27:07.412Z,-1.48
2023-03-16T04:28:07.415Z,-1.39
2023-03-16T04:29:07.386Z,-1.45
2023-03-16T04:30:07.388Z,-1.45
2023-03-16T04:31:07.596Z,-1.36
2023-03-16T04:32:08.358Z,-1.41
2023-03-16T04:33:07.422Z,-1.38
2023-03-16T04:34:07.339Z,-1.31
2023-03-16T04:35:07.327Z,-1.35
2023-03-16T04:36:07.399Z,-1.27
2023-03-16T04:37:07.311Z,-1.30
2023-03-16T04:38:07.298Z,-1.33
2023-03-16T04:39:07.307Z,-1.27
2023-03-16T04:40:09.210Z,-1.38
2023-03-16T04:41:07.297Z,-1.33
2023-03-16T04:42:07.259Z,-1.27
2023-03-16T04:43:07.253Z,-1.31
2023-03-16T04:44:07.242Z,-1.30
2023-03-16T04:45:07.232Z,-1.25
2023-03-16T04:46:07.280Z,-1.33
2023-03-16T04:47:07.207Z,-1.30
2023-03-16T04:48:07.200Z,-1.23
2023-03-16T04:49:07.203Z,-1.30
2023-03-16T04:50:07.175Z,-1.21
2023-03-16T04:51:07.187Z,-1.30
2023-03-16T04:52:07.161Z,-1.31
2023-03-16T04:53:07.154Z,-1.43
2023-03-16T04:54:07.144Z,-1.46
2023-03-16T04:55:07.138Z,-1.41
2023-03-16T04:56:07.161Z,-1.38
2023-03-16T04:57:07.126Z,-1.36
2023-03-16T04:58:07.102Z,-1.42
2023-03-16T04:59:07.099Z,-1.36
2023-03-16T05:00:07.085Z,-1.35
2023-03-16T05:01:07.112Z,-1.38
2023-03-16T05:02:07.084Z,-1.46
2023-03-16T05:03:07.054Z,-1.45
2023-03-16T05:04:07.048Z,-1.43
2023-03-16T05:05:07.071Z,-1.51
2023-03-16T05:06:07.050Z,-1.45
2023-03-16T05:07:07.018Z,-1.42
2023-03-16T05:08:07.035Z,-1.45
2023-03-16T05:09:07.001Z,-1.30
2023-03-16T05:10:07.000Z,-1.41
2023-03-16T05:11:06.999Z,-1.43
2023-03-16T05:12:06.966Z,-1.48
2023-03-16T05:13:06.964Z,-1.48
2023-03-16T05:14:06.963Z,-1.36
2023-03-16T05:15:06.943Z,-1.36
2023-03-16T05:16:06.974Z,-1.31
2023-03-16T05:17:06.906Z,-1.36
2023-03-16T05:18:07.905Z,-1.36
2023-03-16T05:19:06.899Z,-1.38
2023-03-16T05:20:06.888Z,-1.39
2023-03-16T05:21:06.898Z,-1.42
2023-03-16T05:22:06.873Z,-1.27
2023-03-16T05:23:06.862Z,-1.38
2023-03-16T05:24:06.848Z,-1.24
2023-03-16T05:25:06.830Z,-1.38
2023-03-16T05:26:06.869Z,-1.25
2023-03-16T05:27:06.818Z,-1.28
2023-03-16T05:28:06.815Z,-1.28
2023-03-16T05:29:06.802Z,-1.23
2023-03-16T05:30:06.789Z,-1.28
2023-03-16T05:31:06.913Z,-1.24
2023-03-16T05:32:06.767Z,-1.21
2023-03-16T05:33:06.873Z,-1.23
2023-03-16T05:34:06.763Z,-1.18
2023-03-16T05:35:06.751Z,-1.25
2023-03-16T05:36:06.771Z,-1.18
2023-03-16T05:37:06.722Z,-1.24
2023-03-16T05:38:06.710Z,-1.07
2023-03-16T05:39:06.707Z,-1.20
2023-03-16T05:40:06.699Z,-1.10
2023-03-16T05:41:06.709Z,-1.13
2023-03-16T05:42:06.672Z,-1.13
2023-03-16T05:43:06.672Z,-1.15
2023-03-16T05:44:06.665Z,-1.12
2023-03-16T05:45:06.644Z,-1.17
2023-03-16T05:46:06.723Z,-1.12
2023-03-16T05:47:06.736Z,-1.12
2023-03-16T05:48:06.611Z,-0.99
2023-03-16T05:49:07.611Z,-0.99
2023-03-16T05:50:06.610Z,-1.03
2023-03-16T05:51:06.613Z,-1.02
2023-03-16T05:52:06.592Z,-0.95
2023-03-16T05:53:06.570Z,-0.97
2023-03-16T05:54:06.563Z,-0.95
2023-03-16T05:55:06.551Z,-0.89
2023-03-16T05:56:06.553Z,-0.87
2023-03-16T05:57:06.529Z,-0.84
2023-03-16T05:58:06.516Z,-0.86
2023-03-16T05:59:06.508Z,-0.80
2023-03-16T06:00:06.496Z,-0.75
2023-03-16T06:01:06.512Z,-0.70
2023-03-16T06:02:06.482Z,-0.60
2023-03-16T06:03:06.502Z,-0.70
2023-03-16T06:04:06.492Z,-0.62
2023-03-16T06:05:06.444Z,-0.57
2023-03-16T06:06:06.449Z,-0.47
2023-03-16T06:07:06.442Z,-0.47
2023-03-16T06:08:06.425Z,-0.41
2023-03-16T06:09:06.415Z,-0.41
2023-03-16T06:10:06.423Z,-0.41
2023-03-16T06:11:06.411Z,-0.41
2023-03-16T06:12:06.398Z,-0.26
2023-03-16T06:13:06.365Z,-0.31
2023-03-16T06:14:06.362Z,-0.19
2023-03-16T06:15:06.355Z,-0.18
2023-03-16T06:16:06.417Z,-0.19
2023-03-16T06:17:06.340Z,-0.05
2023-03-16T06:18:38.266Z,-0.06
2023-03-16T06:19:06.316Z,-0.01
2023-03-16T06:20:06.331Z,0.13
2023-03-16T06:21:06.315Z,0.06
2023-03-16T06:22:06.365Z,0.15
2023-03-16T06:23:06.302Z,0.23
2023-03-16T06:24:06.273Z,0.30
2023-03-16T06:25:06.281Z,0.31
2023-03-16T06:26:06.314Z,0.39
2023-03-16T06:27:06.244Z,0.39
2023-03-16T06:28:06.231Z,0.41
2023-03-16T06:29:06.223Z,0.61
2023-03-16T06:30:06.215Z,0.65
2023-03-16T06:31:06.325Z,0.60
2023-03-16T06:32:06.192Z,0.70
2023-03-16T06:33:06.290Z,0.80
2023-03-16T06:34:06.166Z,0.90
2023-03-16T06:35:06.161Z,0.92
2023-03-16T06:36:06.281Z,1.04
2023-03-16T06:37:06.154Z,1.08
2023-03-16T06:38:06.147Z,1.12
2023-03-16T06:39:06.165Z,1.18
2023-03-16T06:40:06.129Z,1.26
2023-03-16T06:41:06.154Z,1.25
2023-03-16T06:42:06.109Z,1.37
2023-03-16T06:43:06.104Z,1.34
2023-03-16T06:44:06.092Z,1.34
2023-03-16T06:45:06.085Z,1.46
2023-03-16T06:46:06.133Z,1.39
2023-03-16T06:47:06.065Z,1.51
2023-03-16T06:48:06.052Z,1.44
2023-03-16T06:49:06.051Z,1.43
2023-03-16T06:50:06.038Z,1.43
2023-03-16T06:51:06.068Z,1.57
2023-03-16T06:52:06.061Z,1.60
2023-03-16T06:53:06.044Z,1.58
2023-03-16T06:54:06.015Z,1.51
2023-03-16T06:55:06.012Z,1.58
2023-03-16T06:56:06.028Z,1.50
2023-03-16T06:57:06.019Z,1.57
2023-03-16T06:58:05.983Z,1.57
2023-03-16T06:59:05.971Z,1.55
2023-03-16T07:00:05.956Z,1.54
2023-03-16T07:01:05.958Z,1.65
2023-03-16T07:02:05.977Z,1.62
2023-03-16T07:03:05.933Z,1.69
2023-03-16T07:04:06.034Z,1.60
2023-03-16T07:05:05.905Z,1.64
2023-03-16T07:06:05.918Z,1.75
2023-03-16T07:07:05.923Z,1.79
2023-03-16T07:08:05.888Z,1.83
2023-03-16T07:09:05.884Z,1.82
2023-03-16T07:10:05.877Z,1.97
2023-03-16T07:11:05.861Z,1.97
2023-03-16T07:12:05.885Z,1.94
2023-03-16T07:13:05.843Z,1.93
2023-03-16T07:14:05.844Z,1.93
2023-03-16T07:15:05.830Z,1.93
2023-03-16T07:16:05.828Z,1.98
2023-03-16T07:17:05.924Z,2.06
2023-03-16T07:18:05.814Z,2.08
2023-03-16T07:19:05.820Z,2.13
2023-03-16T07:20:05.832Z,2.17
2023-03-16T07:21:05.794Z,2.22
2023-03-16T07:22:05.793Z,2.22
2023-03-16T07:23:05.777Z,2.19
2023-03-16T07:24:05.759Z,2.27
2023-03-16T07:25:05.756Z,2.31
2023-03-16T07:26:05.745Z,2.40
2023-03-16T07:27:05.762Z,2.41
2023-03-16T07:28:05.733Z,2.48
2023-03-16T07:29:05.714Z,2.31
2023-03-16T07:30:05.709Z,2.40
2023-03-16T07:31:05.696Z,2.26
2023-03-16T07:32:05.790Z,2.26
2023-03-16T07:33:05.736Z,2.34
2023-03-16T07:34:05.672Z,2.35
2023-03-16T07:35:05.667Z,2.38
2023-03-16T07:36:05.880Z,2.40
2023-03-16T07:37:05.708Z,2.44
2023-03-16T07:38:05.651Z,2.52
2023-03-16T07:39:05.626Z,2.63
2023-03-16T07:40:05.633Z,2.51
2023-03-16T07:41:05.608Z,2.45
2023-03-16T07:42:05.617Z,2.31
2023-03-16T07:43:05.604Z,2.30
2023-03-16T07:44:05.591Z,2.37
2023-03-16T07:45:05.579Z,2.40
2023-03-16T07:46:05.649Z,2.31
2023-03-16T07:47:05.580Z,2.34
2023-03-16T07:48:05.573Z,2.41
2023-03-16T07:49:05.584Z,2.41
2023-03-16T07:50:05.583Z,2.51
2023-03-16T07:51:05.524Z,2.34
2023-03-16T07:52:05.567Z,2.35
2023-03-16T07:53:05.506Z,2.40
2023-03-16T07:54:05.513Z,2.56
2023-03-16T07:55:05.513Z,2.55
2023-03-16T07:56:05.481Z,2.63
2023-03-16T07:57:05.487Z,2.63
2023-03-16T07:58:05.464Z,2.67
2023-03-16T07:59:05.444Z,2.73
2023-03-16T08:00:05.461Z,2.73
2023-03-16T08:01:05.433Z,2.81
2023-03-16T08:02:05.477Z,2.73
2023-03-16T08:03:05.411Z,2.87
2023-03-16T08:04:05.461Z,2.84
2023-03-16T08:05:05.394Z,3.03
2023-03-16T08:06:05.380Z,3.05
2023-03-16T08:07:05.387Z,3.10
2023-03-16T08:08:05.371Z,3.13
2023-03-16T08:09:05.351Z,3.18
2023-03-16T08:10:05.338Z,3.28
2023-03-16T08:11:05.326Z,3.36
2023-03-16T08:12:06.344Z,3.34
2023-03-16T08:13:05.362Z,3.36
2023-03-16T08:14:05.308Z,3.43
2023-03-16T08:15:05.292Z,3.46
2023-03-16T08:16:05.347Z,3.58
2023-03-16T08:17:05.287Z,3.67
2023-03-16T08:18:05.258Z,3.61
2023-03-16T08:19:05.264Z,3.70
2023-03-16T08:20:05.254Z,3.85
2023-03-16T08:21:05.238Z,3.89
2023-03-16T08:22:05.258Z,4.00
2023-03-16T08:23:05.228Z,4.00
2023-03-16T08:24:05.195Z,4.16
2023-03-16T08:25:05.198Z,4.16
2023-03-16T08:26:05.183Z,4.18
2023-03-16T08:27:05.183Z,4.36
2023-03-16T08:28:05.159Z,4.34
2023-03-16T08:29:05.180Z,4.32
2023-03-16T08:30:05.161Z,4.47
2023-03-16T08:31:05.154Z,4.46
2023-03-16T08:32:05.133Z,4.46
2023-03-16T08:33:05.246Z,4.44
2023-03-16T08:34:05.115Z,4.52
2023-03-16T08:35:05.080Z,4.52
2023-03-16T08:36:05.096Z,4.57
2023-03-16T08:37:05.082Z,4.70
2023-03-16T08:38:05.038Z,4.67
2023-03-16T08:39:07.395Z,4.65
2023-03-16T08:40:06.008Z,4.76
2023-03-16T08:41:05.008Z,4.86
2023-03-16T08:42:05.061Z,4.88
2023-03-16T08:43:04.996Z,4.89
2023-03-16T08:44:05.005Z,5.07
2023-03-16T08:45:05.076Z,5.07
2023-03-16T08:46:04.962Z,5.20
2023-03-16T08:47:04.951Z,5.28
2023-03-16T08:48:04.993Z,5.23
2023-03-16T08:49:04.924Z,5.25
2023-03-16T08:50:04.910Z,5.38
2023-03-16T08:51:04.902Z,5.48
2023-03-16T08:52:04.921Z,5.46
2023-03-16T08:53:04.921Z,5.48
2023-03-16T08:54:04.861Z,5.53
2023-03-16T08:55:04.849Z,5.46
2023-03-16T08:56:04.865Z,5.55
2023-03-16T08:57:04.834Z,5.63
2023-03-16T08:58:04.839Z,5.73
2023-03-16T08:59:04.809Z,5.78
2023-03-16T09:00:04.850Z,5.74
2023-03-16T09:01:04.794Z,5.66
2023-03-16T09:02:04.852Z,5.81
2023-03-16T09:03:04.803Z,5.75
2023-03-16T09:04:04.845Z,5.77
2023-03-16T09:05:04.751Z,5.77
2023-03-16T09:06:04.753Z,5.86
2023-03-16T09:07:09.624Z,5.93
2023-03-16T09:08:06.743Z,5.96
2023-03-16T09:09:04.737Z,6.04
2023-03-16T09:10:04.711Z,6.06
2023-03-16T09:11:04.690Z,6.10
2023-03-16T09:12:04.719Z,6.04
2023-03-16T09:13:04.691Z,6.14
2023-03-16T09:14:04.678Z,6.26
2023-03-16T09:15:04.666Z,6.26
2023-03-16T09:16:04.651Z,6.26
2023-03-16T09:17:04.693Z,6.22
2023-03-16T09:18:04.620Z,6.18
2023-03-16T09:19:04.616Z,6.25
2023-03-16T09:20:15.419Z,6.16
2023-03-16T09:21:06.588Z,6.25
2023-03-16T09:22:04.595Z,6.21
2023-03-16T09:23:04.573Z,6.25
2023-03-16T09:24:04.557Z,6.33
2023-03-16T09:25:04.545Z,6.29
2023-03-16T09:26:04.536Z,6.25
2023-03-16T09:27:04.584Z,6.29
2023-03-16T09:28:04.545Z,6.46
2023-03-16T09:29:04.506Z,6.50
2023-03-16T09:30:04.507Z,6.44
2023-03-16T09:31:04.528Z,6.47
2023-03-16T09:32:04.474Z,6.53
2023-03-16T09:33:04.536Z,6.56
2023-03-16T09:34:04.453Z,6.59
2023-03-16T09:35:04.455Z,6.66
2023-03-16T09:36:04.467Z,6.65
2023-03-16T09:37:04.426Z,6.72
2023-03-16T09:38:06.202Z,6.87
2023-03-16T09:39:05.404Z,6.77
2023-03-16T09:40:11.713Z,6.83
2023-03-16T09:41:06.395Z,6.80
2023-03-16T09:42:04.364Z,6.83
2023-03-16T09:43:04.388Z,6.83
2023-03-16T09:44:04.351Z,6.80
2023-03-16T09:45:04.360Z,6.79
2023-03-16T09:46:04.387Z,6.77
2023-03-16T09:47:04.321Z,6.83
2023-03-16T09:48:04.340Z,6.73
2023-03-16T09:49:04.306Z,6.76
2023-03-16T09:50:04.327Z,6.90
2023-03-16T09:51:04.312Z,7.09
2023-03-16T09:52:04.280Z,7.09
2023-03-16T09:53:04.288Z,7.07
2023-03-16T09:54:04.262Z,7.20
2023-03-16T09:55:04.247Z,7.22
2023-03-16T09:56:04.264Z,7.29
2023-03-16T09:57:04.233Z,7.17
2023-03-16T09:58:04.246Z,7.17
2023-03-16T09:59:04.206Z,7.34
2023-03-16T10:00:04.190Z,7.37
2023-03-16T10:01:05.235Z,7.41
2023-03-16T10:02:04.188Z,7.50
2023-03-16T10:03:04.187Z,7.45
2023-03-16T10:04:04.236Z,7.66
2023-03-16T10:05:04.164Z,7.53
2023-03-16T10:06:05.149Z,7.58
2023-03-16T10:07:04.145Z,7.58
2023-03-16T10:08:04.143Z,7.50
2023-03-16T10:09:04.120Z,7.37
2023-03-16T10:10:04.106Z,7.49
2023-03-16T10:11:04.110Z,7.49
2023-03-16T10:12:04.091Z,7.69
2023-03-16T10:13:04.111Z,7.71
2023-03-16T10:14:04.091Z,7.74
2023-03-16T10:15:04.094Z,7.72
2023-03-16T10:16:04.102Z,7.62
2023-03-16T10:17:04.053Z,7.62
2023-03-16T10:18:04.028Z,7.67
2023-03-16T10:19:04.056Z,7.69
2023-03-16T10:20:04.014Z,7.87
2023-03-16T10:21:04.008Z,7.75
2023-03-16T10:22:04.003Z,7.82
2023-03-16T10:23:04.011Z,7.79
2023-03-16T10:24:04.001Z,7.85
2023-03-16T10:25:03.945Z,7.79
2023-03-16T10:26:03.940Z,7.90
2023-03-16T10:27:03.936Z,7.97
2023-03-16T10:28:03.925Z,8.10
2023-03-16T10:29:03.913Z,8.14
2023-03-16T10:30:04.924Z,8.20
2023-03-16T10:31:03.904Z,8.17
2023-03-16T10:32:03.944Z,8.17
2023-03-16T10:33:03.922Z,8.25
2023-03-16T10:34:03.864Z,8.35
2023-03-16T10:35:03.927Z,8.36
2023-03-16T10:36:03.904Z,8.30
2023-03-16T10:37:03.844Z,8.45
2023-03-16T10:38:03.854Z,8.58
2023-03-16T10:39:03.816Z,8.51
2023-03-16T10:40:03.813Z,8.53
2023-03-16T10:41:03.818Z,8.62
2023-03-16T10:42:03.791Z,8.69
2023-03-16T10:43:03.812Z,8.78
2023-03-16T10:44:03.772Z,8.71
2023-03-16T10:45:03.786Z,8.57
2023-03-16T10:46:03.882Z,8.47
2023-03-16T10:47:03.841Z,8.50
2023-03-16T10:48:03.764Z,8.54
2023-03-16T10:49:03.738Z,8.68
2023-03-16T10:50:03.751Z,8.73
2023-03-16T10:51:03.712Z,8.79
2023-03-16T10:52:03.699Z,8.86
2023-03-16T10:53:03.746Z,8.84
2023-03-16T10:54:03.672Z,8.86
2023-03-16T10:55:03.667Z,8.93
2023-03-16T10:56:03.657Z,8.99
2023-03-16T10:57:03.664Z,8.97
2023-03-16T10:58:03.655Z,8.94
2023-03-16T10:59:03.629Z,8.94
2023-03-16T11:00:03.621Z,8.94
2023-03-16T11:01:03.694Z,8.86
2023-03-16T11:02:03.631Z,8.79
2023-03-16T11:03:03.608Z,8.87
2023-03-16T11:04:03.581Z,8.88
2023-03-16T11:05:03.567Z,8.90
2023-03-16T11:06:03.564Z,8.81
2023-03-16T11:07:03.552Z,8.96
2023-03-16T11:08:03.555Z,8.88
2023-03-16T11:09:03.545Z,8.91
2023-03-16T11:10:03.524Z,9.01
2023-03-16T11:11:03.516Z,9.18
2023-03-16T11:12:03.547Z,9.12
2023-03-16T11:13:03.516Z,9.05
2023-03-16T11:14:03.490Z,9.09
2023-03-16T11:15:04.725Z,9.10
2023-03-16T11:16:03.483Z,9.06
2023-03-16T11:17:03.516Z,8.93
2023-03-16T11:18:03.467Z,8.90
2023-03-16T11:19:03.436Z,8.75
2023-03-16T11:20:03.422Z,8.69
2023-03-16T11:21:03.428Z,8.79
2023-03-16T11:22:03.418Z,8.91
2023-03-16T11:23:03.465Z,8.88
2023-03-16T11:24:03.385Z,9.01
2023-03-16T11:25:03.392Z,9.06
2023-03-16T11:26:03.389Z,9.05
2023-03-16T11:27:03.383Z,9.05
2023-03-16T11:28:03.352Z,8.93
2023-03-16T11:29:03.339Z,8.99
2023-03-16T11:30:03.329Z,9.01
2023-03-16T11:31:03.326Z,9.09
2023-03-16T11:32:03.354Z,9.10
2023-03-16T11:33:03.329Z,9.13
2023-03-16T11:34:03.318Z,9.21
2023-03-16T11:35:03.281Z,9.12
2023-03-16T11:36:03.324Z,9.34
2023-03-16T11:37:03.287Z,9.25
2023-03-16T11:38:03.264Z,9.34
2023-03-16T11:39:03.277Z,9.43
2023-03-16T11:40:03.229Z,9.50
2023-03-16T11:41:03.224Z,9.58
2023-03-16T11:42:03.232Z,9.53
2023-03-16T11:43:03.193Z,9.61
2023-03-16T11:44:04.250Z,9.63
2023-03-16T11:45:03.179Z,9.38
2023-03-16T11:46:03.177Z,9.45
2023-03-16T11:47:03.164Z,9.34
2023-03-16T11:48:03.168Z,9.49
2023-03-16T11:49:03.167Z,9.49
2023-03-16T11:50:03.123Z,9.68
2023-03-16T11:51:03.130Z,9.67
2023-03-16T11:52:03.139Z,9.76
2023-03-16T11:53:03.110Z,9.96
2023-03-16T11:54:03.090Z,9.86
2023-03-16T11:55:03.096Z,9.89
2023-03-16T11:56:03.055Z,9.94
2023-03-16T11:57:03.080Z,9.88
2023-03-16T11:58:03.048Z,10.00
2023-03-16T11:59:03.029Z,10.09
2023-03-16T12:00:03.024Z,10.03
2023-03-16T12:01:03.023Z,9.96
2023-03-16T12:02:03.145Z,9.96
2023-03-16T12:03:03.067Z,10.06
2023-03-16T12:04:03.102Z,10.12
2023-03-16T12:05:02.963Z,10.18
2023-03-16T12:06:13.651Z,10.14
2023-03-16T12:07:04.976Z,10.14
2023-03-16T12:08:02.948Z,10.21
2023-03-16T12:09:02.954Z,10.14
2023-03-16T12:10:02.928Z,10.10
2023-03-16T12:11:02.916Z,10.17
2023-03-16T12:12:02.915Z,10.19
2023-03-16T12:13:02.893Z,10.19
2023-03-16T12:14:02.900Z,10.10
2023-03-16T12:15:02.881Z,10.17
2023-03-16T12:16:02.927Z,10.30
2023-03-16T12:17:03.190Z,10.43
2023-03-16T12:18:02.851Z,10.47
2023-03-16T12:19:02.848Z,10.47
2023-03-16T12:20:02.811Z,10.46
2023-03-16T12:21:02.810Z,10.22
2023-03-16T12:22:02.792Z,10.10
2023-03-16T12:23:02.781Z,10.17
2023-03-16T12:24:02.814Z,10.01
2023-03-16T12:25:02.779Z,10.19
2023-03-16T12:26:02.749Z,10.07
2023-03-16T12:27:02.746Z,9.99
2023-03-16T12:28:02.739Z,10.14
2023-03-16T12:29:02.759Z,10.24
2023-03-16T12:30:02.739Z,10.37
2023-03-16T12:31:02.738Z,10.32
2023-03-16T12:32:02.704Z,10.36
2023-03-16T12:33:02.728Z,10.47
2023-03-16T12:34:02.698Z,10.43
2023-03-16T12:35:02.667Z,10.39
2023-03-16T12:36:02.774Z,10.26
2023-03-16T12:37:02.722Z,10.26
2023-03-16T12:38:02.648Z,10.42
2023-03-16T12:39:02.650Z,10.44
2023-03-16T12:40:03.608Z,10.44
2023-03-16T12:41:02.616Z,10.44
2023-03-16T12:42:02.619Z,10.53
2023-03-16T12:43:02.653Z,10.63
2023-03-16T12:44:02.670Z,10.83
2023-03-16T12:45:02.574Z,10.73
2023-03-16T12:46:02.575Z,10.94
2023-03-16T12:47:02.543Z,10.95
2023-03-16T12:48:02.558Z,11.07
2023-03-16T12:49:02.569Z,11.09
2023-03-16T12:50:02.527Z,10.98
2023-03-16T12:51:02.511Z,10.81
2023-03-16T12:52:02.490Z,10.80
2023-03-16T12:53:02.495Z,10.81
2023-03-16T12:54:02.518Z,10.78
2023-03-16T12:55:02.471Z,10.77
2023-03-16T12:56:02.474Z,10.89
2023-03-16T12:57:02.473Z,11.01
2023-03-16T12:58:02.443Z,11.19
2023-03-16T12:59:02.461Z,11.21
2023-03-16T13:00:02.415Z,11.24
2023-03-16T13:01:04.419Z,11.27
2023-03-16T13:02:02.407Z,11.20
2023-03-16T13:03:02.381Z,11.19